^^
Saratoga-Weather Station Historical Data
Daily Summary for June 18, 2020 Units:  Metric    English   Both
Daily Weekly Monthly Yearly Custom
  High: Low: Average:
Temperature: 9.9 °C 4.3 °C 6.7 °C
Dew Point: 8.6 °C 3.7 °C 6 °C
Humidity: 97% 89% 95%
Wind Speed: 4.7km/h 0km/h 0.4km/h
Wind Gust: 6.4km/h - -
Wind- - ESE
Pressure: 1027.1 hPa 1020.7 hPa -
Precipitation: 0.2 mm    
Historical Graphs
 
 
Tabular Data for June 18, 2020
Time Temperature Dew Point Pressure Wind Wind Speed Wind Gust Humidity Rainfall Rate (Hourly) solar
00:01 9.8 °C 8.1 °C 1027.1 hPa Calm     89% 0.0 mm 0 W/m2
00:06 9.7 °C 8 °C 1027.1 hPa Calm     89% 0.0 mm 0 W/m2
00:11 9.6 °C 7.9 °C 1027.1 hPa Calm   1.6 km/h 89% 0.0 mm 0 W/m2
00:16 9.4 °C 7.8 °C 1027.1 hPa Calm     90% 0.0 mm 0 W/m2
00:21 9.3 °C 7.7 °C 1027.1 hPa Calm   1.6 km/h 90% 0.0 mm 0 W/m2
00:26 9.1 °C 7.5 °C 1027.1 hPa Calm     90% 0.0 mm 0 W/m2
00:31 8.9 °C 7.3 °C 1027.1 hPa Calm     90% 0.0 mm 0 W/m2
00:36 8.8 °C 7.4 °C 1027.1 hPa Calm     91% 0.0 mm 0 W/m2
00:41 8.6 °C 7.2 °C 1027.1 hPa Calm     91% 0.0 mm 0 W/m2
00:46 8.5 °C 7.1 °C 1027.1 hPa Calm     91% 0.0 mm 0 W/m2
00:51 8.4 °C 7.2 °C 1027.1 hPa Calm     92% 0.0 mm 0 W/m2
00:57 8.3 °C 7.1 °C 1027.1 hPa Calm     92% 0.0 mm 0 W/m2
01:02 8.2 °C 7 °C 1027.1 hPa Calm     92% 0.0 mm 0 W/m2
01:07 8.1 °C 6.9 °C 1027.1 hPa Calm     92% 0.0 mm 0 W/m2
01:12 8 °C 6.8 °C 1027.1 hPa Calm     92% 0.0 mm 0 W/m2
01:17 7.9 °C 6.8 °C 1027.1 hPa Calm     93% 0.0 mm 0 W/m2
01:22 7.8 °C 6.7 °C 1027.1 hPa Calm     93% 0.0 mm 0 W/m2
01:27 7.7 °C 6.5 °C 1027.1 hPa Calm     92% 0.0 mm 0 W/m2
01:32 7.5 °C 6.3 °C 1027.1 hPa Calm     92% 0.0 mm 0 W/m2
01:37 7.4 °C 6.3 °C 1027.1 hPa ESE 3.2 km/h 4.8 km/h 93% 0.0 mm 0 W/m2
01:42 7.3 °C 6.2 °C 1026.8 hPa Calm   1.6 km/h 93% 0.0 mm 0 W/m2
01:47 7.3 °C 6.2 °C 1026.8 hPa Calm   4.8 km/h 93% 0.0 mm 0 W/m2
01:52 7.3 °C 6.4 °C 1026.8 hPa Calm     94% 0.0 mm 0 W/m2
01:57 7.2 °C 6.1 °C 1027.1 hPa Calm     93% 0.0 mm 0 W/m2
02:02 7.1 °C 6.2 °C 1027.1 hPa Calm     94% 0.0 mm 0 W/m2
02:07 7 °C 6.1 °C 1027.1 hPa Calm     94% 0.0 mm 0 W/m2
02:12 6.9 °C 6 °C 1027.1 hPa Calm     94% 0.0 mm 0 W/m2
02:17 6.8 °C 5.9 °C 1026.8 hPa Calm     94% 0.0 mm 0 W/m2
02:22 6.7 °C 5.8 °C 1026.8 hPa Calm     94% 0.0 mm 0 W/m2
02:27 6.7 °C 5.8 °C 1026.8 hPa Calm     94% 0.0 mm 0 W/m2
02:32 6.7 °C 5.8 °C 1026.8 hPa Calm     94% 0.0 mm 0 W/m2
02:37 6.6 °C 5.7 °C 1026.8 hPa Calm     94% 0.0 mm 0 W/m2
02:42 6.5 °C 5.6 °C 1026.8 hPa Calm     94% 0.0 mm 0 W/m2
02:47 6.4 °C 5.5 °C 1026.8 hPa Calm     94% 0.0 mm 0 W/m2
02:52 6.4 °C 5.7 °C 1026.8 hPa Calm     95% 0.0 mm 0 W/m2
02:57 6.3 °C 5.6 °C 1026.8 hPa Calm     95% 0.0 mm 0 W/m2
03:02 6.3 °C 5.6 °C 1026.8 hPa Calm     95% 0.0 mm 0 W/m2
03:07 6.2 °C 5.5 °C 1026.8 hPa Calm     95% 0.0 mm 0 W/m2
03:12 6.1 °C 5.4 °C 1026.8 hPa Calm     95% 0.0 mm 0 W/m2
03:17 6.1 °C 5.4 °C 1026.8 hPa Calm     95% 0.0 mm 0 W/m2
03:22 6 °C 5.3 °C 1026.8 hPa Calm     95% 0.0 mm 0 W/m2
03:27 5.9 °C 5.2 °C 1026.8 hPa Calm     95% 0.0 mm 0 W/m2
03:32 5.8 °C 5.1 °C 1026.8 hPa Calm     95% 0.0 mm 0 W/m2
03:37 5.7 °C 5 °C 1026.8 hPa Calm     95% 0.0 mm 0 W/m2
03:42 5.7 °C 5 °C 1026.8 hPa Calm     95% 0.0 mm 0 W/m2
03:47 5.6 °C 4.9 °C 1026.8 hPa Calm     95% 0.0 mm 0 W/m2
03:52 5.6 °C 4.9 °C 1026.8 hPa Calm     95% 0.0 mm 0 W/m2
03:57 5.6 °C 4.9 °C 1026.8 hPa Calm     95% 0.0 mm 0 W/m2
04:02 5.6 °C 4.9 °C 1026.8 hPa ESE 1.4 km/h 1.6 km/h 95% 0.0 mm 0 W/m2
04:07 5.7 °C 5 °C 1026.8 hPa Calm     95% 0.0 mm 0 W/m2
04:12 5.7 °C 5 °C 1026.8 hPa Calm     95% 0.0 mm 0 W/m2
04:17 5.7 °C 5 °C 1026.4 hPa Calm     95% 0.0 mm 0 W/m2
04:22 5.7 °C 5 °C 1026.4 hPa Calm     95% 0.0 mm 0 W/m2
04:27 5.6 °C 4.9 °C 1026.4 hPa Calm     95% 0.0 mm 0 W/m2
04:32 5.6 °C 4.9 °C 1026.4 hPa Calm     95% 0.0 mm 0 W/m2
04:37 5.5 °C 4.9 °C 1026.4 hPa Calm     96% 0.0 mm 0 W/m2
04:42 5.4 °C 4.7 °C 1026.4 hPa Calm     95% 0.0 mm 0 W/m2
04:47 5.3 °C 4.6 °C 1026.4 hPa Calm     95% 0.0 mm 0 W/m2
04:52 5.3 °C 4.6 °C 1026.4 hPa Calm     95% 0.0 mm 0 W/m2
04:57 5.2 °C 4.5 °C 1026.4 hPa Calm     95% 0.0 mm 0 W/m2
05:02 5.1 °C 4.5 °C 1026.4 hPa Calm     96% 0.0 mm 0 W/m2
05:07 5.1 °C 4.5 °C 1026.4 hPa Calm     96% 0.0 mm 0 W/m2
05:12 5.1 °C 4.4 °C 1026.4 hPa Calm     95% 0.0 mm 0 W/m2
05:17 5 °C 4.3 °C 1026.4 hPa Calm     95% 0.0 mm 0 W/m2
05:22 4.9 °C 4.3 °C 1026.4 hPa Calm     96% 0.0 mm 0 W/m2
05:27 4.9 °C 4.3 °C 1026.4 hPa Calm     96% 0.0 mm 0 W/m2
05:33 4.9 °C 4.3 °C 1026.4 hPa Calm     96% 0.0 mm 0 W/m2
05:38 4.8 °C 4.2 °C 1026.4 hPa Calm     96% 0.0 mm 0 W/m2
05:43 4.8 °C 4.2 °C 1026.4 hPa Calm     96% 0.0 mm 0 W/m2
05:48 4.8 °C 4.2 °C 1026.4 hPa Calm     96% 0.0 mm 0 W/m2
05:53 4.7 °C 4.1 °C 1026.4 hPa Calm     96% 0.0 mm 0 W/m2
05:58 4.8 °C 4.2 °C 1026.4 hPa Calm     96% 0.0 mm 0 W/m2
06:03 4.8 °C 4.2 °C 1026.4 hPa Calm     96% 0.0 mm 0 W/m2
06:08 4.7 °C 4.1 °C 1026.4 hPa Calm     96% 0.0 mm 0 W/m2
06:13 4.7 °C 4.1 °C 1026.4 hPa Calm     96% 0.0 mm 0 W/m2
06:18 4.7 °C 4.1 °C 1026.4 hPa Calm     96% 0.0 mm 0 W/m2
06:23 4.7 °C 4.1 °C 1026.1 hPa Calm     96% 0.0 mm 0 W/m2
06:28 4.6 °C 4 °C 1026.1 hPa Calm     96% 0.0 mm 0 W/m2
06:33 4.5 °C 3.9 °C 1026.1 hPa Calm     96% 0.0 mm 0 W/m2
06:38 4.4 °C 3.8 °C 1026.1 hPa Calm     96% 0.0 mm 0 W/m2
06:43 4.4 °C 3.8 °C 1026.1 hPa Calm     96% 0.0 mm 0 W/m2
06:48 4.4 °C 3.8 °C 1026.1 hPa Calm     96% 0.0 mm 0 W/m2
06:53 4.4 °C 3.8 °C 1026.1 hPa Calm     96% 0.0 mm 0 W/m2
06:58 4.4 °C 3.8 °C 1026.1 hPa Calm     96% 0.0 mm 0 W/m2
07:03 4.3 °C 3.7 °C 1026.1 hPa Calm     96% 0.0 mm 0 W/m2
07:08 4.4 °C 3.8 °C 1026.1 hPa ESE 1.4 km/h 1.6 km/h 96% 0.0 mm 0 W/m2
07:13 4.4 °C 3.8 °C 1026.1 hPa Calm     96% 0.0 mm 0 W/m2
07:18 4.4 °C 3.8 °C 1026.1 hPa Calm     96% 0.0 mm 0 W/m2
07:23 4.5 °C 3.9 °C 1026.1 hPa Calm     96% 0.0 mm 0 W/m2
07:28 4.5 °C 3.9 °C 1025.7 hPa Calm     96% 0.0 mm 0 W/m2
07:33 4.5 °C 3.9 °C 1026.1 hPa ESE 1.4 km/h 3.2 km/h 96% 0.0 mm 0 W/m2
07:38 4.6 °C 4 °C 1026.1 hPa East 1.4 km/h 3.2 km/h 96% 0.0 mm 0 W/m2
07:43 4.6 °C 4 °C 1026.1 hPa East 1.4 km/h 3.2 km/h 96% 0.0 mm 0 W/m2
07:48 4.6 °C 4 °C 1026.1 hPa East 1.4 km/h 1.6 km/h 96% 0.0 mm 0 W/m2
07:53 4.7 °C 4.1 °C 1026.1 hPa Calm     96% 0.0 mm 0 W/m2
07:58 4.7 °C 4.3 °C 1026.1 hPa Calm   1.6 km/h 97% 0.0 mm 0 W/m2
08:03 4.8 °C 4.4 °C 1026.1 hPa Calm     97% 0.0 mm 5 W/m2
08:08 4.8 °C 4.4 °C 1026.1 hPa Calm   1.6 km/h 97% 0.0 mm 7 W/m2
08:13 4.9 °C 4.5 °C 1026.1 hPa Calm   1.6 km/h 97% 0.0 mm 7 W/m2
08:18 4.9 °C 4.5 °C 1026.1 hPa Calm     97% 0.0 mm 11 W/m2
08:23 5.1 °C 4.7 °C 1026.1 hPa Calm   3.2 km/h 97% 0.0 mm 19 W/m2
08:28 5.2 °C 4.8 °C 1026.1 hPa Calm     97% 0.0 mm 18 W/m2
08:33 5.2 °C 4.8 °C 1026.1 hPa East 1.4 km/h 1.6 km/h 97% 0.0 mm 21 W/m2
08:38 5.2 °C 4.8 °C 1026.1 hPa ESE 1.4 km/h 3.2 km/h 97% 0.0 mm 25 W/m2
08:43 5.2 °C 4.8 °C 1026.1 hPa Calm   1.6 km/h 97% 0.0 mm 26 W/m2
08:48 5.3 °C 4.9 °C 1026.1 hPa Calm   1.6 km/h 97% 0.0 mm 26 W/m2
08:53 5.2 °C 4.8 °C 1026.1 hPa Calm   3.2 km/h 97% 0.0 mm 33 W/m2
08:58 5.2 °C 4.8 °C 1026.1 hPa Calm   1.6 km/h 97% 0.0 mm 37 W/m2
09:03 5.2 °C 4.8 °C 1025.7 hPa ESE 1.4 km/h 3.2 km/h 97% 0.0 mm 33 W/m2
09:08 5.2 °C 4.8 °C 1025.7 hPa SE 1.4 km/h 4.8 km/h 97% 0.0 mm 37 W/m2
09:13 5.2 °C 4.8 °C 1025.7 hPa ESE 3.2 km/h 4.8 km/h 97% 0.0 mm 46 W/m2
09:18 5.3 °C 4.9 °C 1025.7 hPa Calm   1.6 km/h 97% 0.0 mm 49 W/m2
09:23 5.3 °C 4.9 °C 1025.7 hPa Calm   3.2 km/h 97% 0.0 mm 58 W/m2
09:28 5.3 °C 4.9 °C 1025.7 hPa East 3.2 km/h 4.8 km/h 97% 0.0 mm 51 W/m2
09:33 5.3 °C 4.9 °C 1025.7 hPa Calm   1.6 km/h 97% 0.0 mm 46 W/m2
09:38 5.3 °C 4.9 °C 1025.7 hPa ESE 1.4 km/h 4.8 km/h 97% 0.0 mm 40 W/m2
09:43 5.3 °C 4.9 °C 1025.7 hPa East 3.2 km/h 3.2 km/h 97% 0.0 mm 53 W/m2
09:48 5.4 °C 5 °C 1025.7 hPa East 1.4 km/h 1.6 km/h 97% 0.0 mm 62 W/m2
09:53 5.5 °C 5.1 °C 1025.7 hPa Calm   1.6 km/h 97% 0.0 mm 62 W/m2
09:58 5.6 °C 5.2 °C 1025.7 hPa ESE 4.7 km/h 4.8 km/h 97% 0.0 mm 77 W/m2
10:03 5.7 °C 5.3 °C 1025.7 hPa East 3.2 km/h 3.2 km/h 97% 0.0 mm 65 W/m2
10:08 5.7 °C 5.3 °C 1025.7 hPa Calm   4.8 km/h 97% 0.0 mm 76 W/m2
10:13 5.7 °C 5.3 °C 1025.7 hPa ESE 1.4 km/h 3.2 km/h 97% 0.0 mm 74 W/m2
10:18 5.7 °C 5.3 °C 1025.7 hPa East 3.2 km/h 3.2 km/h 97% 0.0 mm 72 W/m2
10:23 5.8 °C 5.4 °C 1025.7 hPa ENE 1.4 km/h 4.8 km/h 97% 0.0 mm 83 W/m2
10:28 5.8 °C 5.4 °C 1025.7 hPa NE 1.4 km/h 1.6 km/h 97% 0.0 mm 77 W/m2
10:33 5.9 °C 5.5 °C 1025.7 hPa Calm   1.6 km/h 97% 0.0 mm 69 W/m2
10:38 5.9 °C 5.5 °C 1025.7 hPa Calm   3.2 km/h 97% 0.0 mm 69 W/m2
10:43 6 °C 5.6 °C 1025.7 hPa Calm   1.6 km/h 97% 0.0 mm 72 W/m2
10:48 6 °C 5.6 °C 1025.7 hPa Calm   1.6 km/h 97% 0.0 mm 91 W/m2
10:53 6.1 °C 5.7 °C 1025.7 hPa East 1.4 km/h 3.2 km/h 97% 0.0 mm 91 W/m2
10:58 6 °C 5.6 °C 1025.7 hPa Calm   1.6 km/h 97% 0.0 mm 76 W/m2
11:03 6.1 °C 5.7 °C 1025.7 hPa Calm     97% 0.0 mm 74 W/m2
11:08 6.1 °C 5.7 °C 1025.7 hPa Calm   1.6 km/h 97% 0.0 mm 97 W/m2
11:13 6.1 °C 5.7 °C 1025.4 hPa Calm   3.2 km/h 97% 0.0 mm 127 W/m2
11:18 6.2 °C 5.8 °C 1025.4 hPa East 3.2 km/h 3.2 km/h 97% 0.0 mm 111 W/m2
11:23 6.3 °C 5.9 °C 1025.4 hPa East 1.4 km/h 1.6 km/h 97% 0.0 mm 139 W/m2
11:28 6.3 °C 5.9 °C 1025.4 hPa ENE 1.4 km/h 1.6 km/h 97% 0.0 mm 123 W/m2
11:33 6.4 °C 6 °C 1025.4 hPa ENE 1.4 km/h 3.2 km/h 97% 0.0 mm 121 W/m2
11:38 6.5 °C 6.1 °C 1025.4 hPa Calm   1.6 km/h 97% 0.0 mm 134 W/m2
11:43 6.6 °C 6.2 °C 1025.1 hPa Calm   6.4 km/h 97% 0.0 mm 118 W/m2
11:48 6.5 °C 6.1 °C 1025.1 hPa Calm   1.6 km/h 97% 0.0 mm 153 W/m2
11:53 6.5 °C 6.1 °C 1025.1 hPa Calm   6.4 km/h 97% 0.0 mm 135 W/m2
11:58 6.6 °C 6.2 °C 1025.1 hPa ESE 1.4 km/h 4.8 km/h 97% 0.0 mm 141 W/m2
12:03 6.7 °C 6.3 °C 1025.1 hPa Calm   6.4 km/h 97% 0.0 mm 153 W/m2
12:08 6.8 °C 6.4 °C 1025.1 hPa Calm     97% 0.0 mm 58 W/m2
12:13 6.9 °C 6.5 °C 1024.7 hPa East 1.4 km/h 3.2 km/h 97% 0.0 mm 44 W/m2
12:18 6.9 °C 6.5 °C 1024.7 hPa Calm   3.2 km/h 97% 0.0 mm 58 W/m2
12:23 7 °C 6.6 °C 1024.7 hPa East 3.2 km/h 3.2 km/h 97% 0.0 mm 37 W/m2
12:28 7.1 °C 6.7 °C 1024.4 hPa NE 1.4 km/h 6.4 km/h 97% 0.0 mm 39 W/m2
12:33 7.2 °C 6.8 °C 1024.4 hPa Calm   3.2 km/h 97% 0.0 mm 39 W/m2
12:38 7.3 °C 6.9 °C 1024.4 hPa ENE 4.7 km/h 4.8 km/h 97% 0.0 mm 49 W/m2
12:43 7.3 °C 6.9 °C 1024.0 hPa ENE 1.4 km/h 1.6 km/h 97% 0.0 mm 37 W/m2
12:48 7.4 °C 7 °C 1024.0 hPa Calm   1.6 km/h 97% 0.0 mm 44 W/m2
12:53 7.6 °C 7.2 °C 1024.0 hPa NE 1.4 km/h 4.8 km/h 97% 0.0 mm 33 W/m2
12:58 7.7 °C 7.3 °C 1024.0 hPa ENE 3.2 km/h 4.8 km/h 97% 0.0 mm 33 W/m2
13:03 7.8 °C 7.4 °C 1024.0 hPa Calm   1.6 km/h 97% 0.0 mm 32 W/m2
13:08 7.9 °C 7.5 °C 1023.7 hPa SE 1.4 km/h 4.8 km/h 97% 0.0 mm 33 W/m2
13:13 8.1 °C 7.7 °C 1023.7 hPa Calm     97% 0.0 mm 35 W/m2
13:18 8.2 °C 7.8 °C 1023.4 hPa ESE 1.4 km/h 3.2 km/h 97% 0.0 mm 33 W/m2
13:23 8.3 °C 7.9 °C 1023.4 hPa ENE 1.4 km/h 4.8 km/h 97% 0.0 mm 30 W/m2
13:28 8.4 °C 8 °C 1023.4 hPa ENE 1.4 km/h 4.8 km/h 97% 0.0 mm 37 W/m2
13:33 8.7 °C 8.3 °C 1023.4 hPa Calm     97% 0.0 mm 42 W/m2
13:38 8.8 °C 8.3 °C 1023.4 hPa ESE 1.4 km/h 3.2 km/h 97% 0.0 mm 39 W/m2
13:43 8.9 °C 8.4 °C 1023.4 hPa Calm     97% 0.0 mm 30 W/m2
13:48 8.9 °C 8.3 °C 1023.4 hPa Calm   1.6 km/h 96% 0.0 mm 28 W/m2
13:53 9 °C 8.4 °C 1023.4 hPa SE 1.4 km/h 6.4 km/h 96% 0.0 mm 51 W/m2
13:58 9.2 °C 8.6 °C 1023.0 hPa East 1.4 km/h 6.4 km/h 96% 0.0 mm 32 W/m2
14:03 9.3 °C 8.5 °C 1023.0 hPa Calm   3.2 km/h 95% 0.0 mm 28 W/m2
14:08 9.5 °C 8.6 °C 1023.0 hPa SE 3.2 km/h 4.8 km/h 94% 0.0 mm 28 W/m2
14:13 9.7 °C 8.6 °C 1023.0 hPa ESE 1.4 km/h 3.2 km/h 93% 0.0 mm 28 W/m2
14:18 9.8 °C 8.6 °C 1022.7 hPa ESE 3.2 km/h 4.8 km/h 92% 0.0 mm 26 W/m2
14:23 9.8 °C 8.6 °C 1022.7 hPa Calm   1.6 km/h 92% 0.0 mm 26 W/m2
14:28 9.8 °C 8.4 °C 1022.7 hPa Calm   1.6 km/h 91% 0.0 mm 26 W/m2
14:33 9.9 °C 8.5 °C 1022.7 hPa SE 3.2 km/h 3.2 km/h 91% 0.0 mm 25 W/m2
14:38 9.9 °C 8.3 °C 1022.7 hPa Calm   1.6 km/h 90% 0.0 mm 25 W/m2
14:43 9.9 °C 8.3 °C 1022.7 hPa Calm   1.6 km/h 90% 0.0 mm 23 W/m2
14:48 9.9 °C 8.3 °C 1022.4 hPa SE 1.4 km/h 1.6 km/h 90% 0.0 mm 23 W/m2
14:53 9.8 °C 8.2 °C 1022.4 hPa Calm     90% 0.0 mm 23 W/m2
14:58 9.8 °C 8.2 °C 1022.4 hPa ENE 1.4 km/h 4.8 km/h 90% 0.0 mm 23 W/m2
15:03 9.8 °C 8.2 °C 1022.4 hPa Calm   1.6 km/h 90% 0.0 mm 21 W/m2
15:08 9.8 °C 8.2 °C 1022.4 hPa Calm   4.8 km/h 90% 0.0 mm 21 W/m2
15:13 9.8 °C 8.2 °C 1022.7 hPa Calm     90% 0.0 mm 21 W/m2
15:18 9.8 °C 8.2 °C 1022.4 hPa Calm     90% 0.0 mm 21 W/m2
15:23 9.7 °C 8.1 °C 1022.4 hPa Calm     90% 0.0 mm 21 W/m2
15:28 9.7 °C 8.1 °C 1022.4 hPa Calm     90% 0.0 mm 19 W/m2
15:34 9.6 °C 8 °C 1022.4 hPa Calm     90% 0.0 mm 19 W/m2
15:39 9.5 °C 7.9 °C 1022.4 hPa Calm     90% 0.0 mm 19 W/m2
15:44 9.4 °C 7.8 °C 1022.0 hPa Calm     90% 0.0 mm 18 W/m2
15:49 9.4 °C 8 °C 1022.0 hPa Calm     91% 0.0 mm 18 W/m2
15:54 9.4 °C 8 °C 1022.0 hPa Calm     91% 0.0 mm 16 W/m2
15:59 9.3 °C 7.9 °C 1022.0 hPa Calm   1.6 km/h 91% 0.0 mm 16 W/m2
16:04 9.3 °C 7.9 °C 1022.0 hPa Calm     91% 0.0 mm 16 W/m2
16:09 9.2 °C 7.8 °C 1022.0 hPa SSE 1.4 km/h 1.6 km/h 91% 0.0 mm 14 W/m2
16:14 9.2 °C 7.8 °C 1022.0 hPa Calm     91% 0.0 mm 14 W/m2
16:19 9.1 °C 7.7 °C 1022.0 hPa Calm     91% 0.0 mm 12 W/m2
16:24 8.9 °C 7.5 °C 1022.0 hPa Calm     91% 0.0 mm 12 W/m2
16:29 8.9 °C 7.7 °C 1022.0 hPa Calm     92% 0.0 mm 11 W/m2
16:34 8.8 °C 7.6 °C 1022.0 hPa Calm     92% 0.0 mm 9 W/m2
16:39 8.7 °C 7.5 °C 1022.0 hPa Calm     92% 0.0 mm 7 W/m2
16:44 8.7 °C 7.5 °C 1021.7 hPa Calm   1.6 km/h 92% 0.0 mm 5 W/m2
16:49 8.6 °C 7.4 °C 1021.7 hPa Calm   3.2 km/h 92% 0.0 mm 0 W/m2
16:54 8.5 °C 7.4 °C 1021.7 hPa Calm     93% 0.0 mm 0 W/m2
16:59 8.4 °C 7.3 °C 1021.7 hPa SSE 1.4 km/h 3.2 km/h 93% 0.0 mm 0 W/m2
17:04 8.4 °C 7.3 °C 1021.7 hPa Calm   1.6 km/h 93% 0.0 mm 0 W/m2
17:09 8.3 °C 7.2 °C 1021.7 hPa Calm     93% 0.0 mm 0 W/m2
17:14 8.3 °C 7.2 °C 1021.7 hPa Calm   1.6 km/h 93% 0.0 mm 0 W/m2
17:19 8.2 °C 7.1 °C 1021.7 hPa Calm     93% 0.0 mm 0 W/m2
17:24 8.2 °C 7.1 °C 1021.7 hPa Calm     93% 0.0 mm 0 W/m2
17:29 8.1 °C 7.2 °C 1021.7 hPa Calm     94% 0.0 mm 0 W/m2
17:34 8 °C 7.1 °C 1022.0 hPa Calm     94% 0.0 mm 0 W/m2
17:39 7.9 °C 7 °C 1021.7 hPa Calm     94% 0.0 mm 0 W/m2
17:44 7.9 °C 7 °C 1022.0 hPa Calm     94% 0.0 mm 0 W/m2
17:49 7.8 °C 6.9 °C 1022.0 hPa Calm     94% 0.0 mm 0 W/m2
17:54 7.8 °C 6.9 °C 1022.0 hPa Calm     94% 0.0 mm 0 W/m2
17:59 7.8 °C 6.9 °C 1021.7 hPa Calm     94% 0.0 mm 0 W/m2
18:04 7.7 °C 6.8 °C 1021.7 hPa Calm     94% 0.0 mm 0 W/m2
18:09 7.7 °C 6.8 °C 1021.7 hPa Calm     94% 0.0 mm 0 W/m2
18:14 7.6 °C 6.9 °C 1021.7 hPa Calm     95% 0.0 mm 0 W/m2
18:19 7.6 °C 6.9 °C 1021.7 hPa Calm     95% 0.0 mm 0 W/m2
18:24 7.6 °C 6.9 °C 1021.7 hPa Calm     95% 0.0 mm 0 W/m2
18:29 7.5 °C 6.8 °C 1021.7 hPa Calm     95% 0.0 mm 0 W/m2
18:34 7.4 °C 6.7 °C 1021.7 hPa Calm     95% 0.0 mm 0 W/m2
18:39 7.3 °C 6.6 °C 1021.3 hPa Calm     95% 0.0 mm 0 W/m2
18:44 7.2 °C 6.5 °C 1021.3 hPa Calm     95% 0.0 mm 0 W/m2
18:49 7.2 °C 6.5 °C 1021.3 hPa Calm     95% 0.0 mm 0 W/m2
18:54 7.1 °C 6.4 °C 1021.3 hPa Calm     95% 0.0 mm 0 W/m2
18:59 7 °C 6.3 °C 1021.3 hPa Calm     95% 0.0 mm 0 W/m2
19:04 6.9 °C 6.2 °C 1021.7 hPa Calm     95% 0.0 mm 0 W/m2
19:09 6.8 °C 6.1 °C 1021.3 hPa Calm     95% 0.0 mm 0 W/m2
19:14 6.8 °C 6.1 °C 1021.3 hPa Calm     95% 0.0 mm 0 W/m2
19:19 6.8 °C 6.1 °C 1021.3 hPa Calm     95% 0.0 mm 0 W/m2
19:24 6.8 °C 6.1 °C 1021.3 hPa Calm     95% 0.0 mm 0 W/m2
19:29 6.7 °C 6 °C 1021.3 hPa Calm     95% 0.0 mm 0 W/m2
19:34 6.7 °C 6 °C 1021.3 hPa Calm     95% 0.0 mm 0 W/m2
19:39 6.6 °C 5.9 °C 1021.3 hPa Calm     95% 0.0 mm 0 W/m2
19:44 6.6 °C 5.9 °C 1021.3 hPa Calm     95% 0.0 mm 0 W/m2
19:49 6.6 °C 5.9 °C 1021.7 hPa Calm     95% 0.0 mm 0 W/m2
19:54 6.6 °C 6 °C 1021.3 hPa Calm     96% 0.0 mm 0 W/m2
19:59 6.7 °C 6.1 °C 1021.3 hPa Calm   3.2 km/h 96% 0.0 mm 0 W/m2
20:04 6.7 °C 6.1 °C 1021.3 hPa Calm     96% 0.0 mm 0 W/m2
20:09 6.8 °C 6.2 °C 1021.3 hPa Calm     96% 0.0 mm 0 W/m2
20:14 6.7 °C 6.1 °C 1021.3 hPa Calm     96% 0.0 mm 0 W/m2
20:19 6.6 °C 6 °C 1021.3 hPa Calm     96% 0.0 mm 0 W/m2
20:24 6.5 °C 5.9 °C 1021.3 hPa Calm     96% 0.0 mm 0 W/m2
20:29 6.4 °C 5.8 °C 1021.3 hPa Calm     96% 0.0 mm 0 W/m2
20:34 6.3 °C 5.6 °C 1021.3 hPa Calm     95% 0.0 mm 0 W/m2
20:39 6.3 °C 5.6 °C 1021.3 hPa Calm     95% 0.0 mm 0 W/m2
20:44 6.2 °C 5.6 °C 1021.3 hPa Calm     96% 0.0 mm 0 W/m2
20:49 6.2 °C 5.6 °C 1021.3 hPa Calm     96% 0.0 mm 0 W/m2
20:54 6.2 °C 5.6 °C 1021.3 hPa Calm     96% 0.0 mm 0 W/m2
20:59 6.2 °C 5.6 °C 1021.3 hPa Calm     96% 0.0 mm 0 W/m2
21:05 6.2 °C 5.6 °C 1021.3 hPa Calm     96% 0.0 mm 0 W/m2
21:10 6.1 °C 5.5 °C 1021.3 hPa Calm     96% 0.0 mm 0 W/m2
21:15 6 °C 5.4 °C 1021.3 hPa Calm     96% 0.0 mm 0 W/m2
21:20 6 °C 5.4 °C 1021.0 hPa Calm     96% 0.0 mm 0 W/m2
21:25 6 °C 5.4 °C 1021.3 hPa Calm     96% 0.0 mm 0 W/m2
21:30 5.9 °C 5.3 °C 1021.3 hPa Calm     96% 0.0 mm 0 W/m2
21:35 5.9 °C 5.3 °C 1021.0 hPa Calm     96% 0.0 mm 0 W/m2
21:40 5.8 °C 5.2 °C 1021.0 hPa Calm     96% 0.0 mm 0 W/m2
21:45 5.8 °C 5.2 °C 1021.3 hPa Calm     96% 0.0 mm 0 W/m2
21:50 5.9 °C 5.3 °C 1021.3 hPa Calm   1.6 km/h 96% 0.0 mm 0 W/m2
21:55 5.8 °C 5.2 °C 1021.3 hPa Calm     96% 0.0 mm 0 W/m2
22:00 5.8 °C 5.2 °C 1021.0 hPa Calm     96% 0.0 mm 0 W/m2
22:05 5.8 °C 5.2 °C 1021.0 hPa Calm     96% 0.0 mm 0 W/m2
22:10 5.8 °C 5.2 °C 1021.0 hPa Calm     96% 0.0 mm 0 W/m2
22:15 5.8 °C 5.2 °C 1021.0 hPa Calm   1.6 km/h 96% 0.0 mm 0 W/m2
22:20 5.8 °C 5.2 °C 1021.0 hPa Calm   3.2 km/h 96% 0.0 mm 0 W/m2
22:25 5.8 °C 5.2 °C 1021.0 hPa Calm     96% 0.0 mm 0 W/m2
22:30 5.8 °C 5.2 °C 1021.0 hPa Calm   3.2 km/h 96% 0.0 mm 0 W/m2
22:35 5.8 °C 5.2 °C 1021.0 hPa Calm     96% 0.0 mm 0 W/m2
22:40 5.8 °C 5.2 °C 1021.0 hPa Calm   1.6 km/h 96% 0.0 mm 0 W/m2
22:45 5.7 °C 5.1 °C 1021.0 hPa Calm     96% 0.0 mm 0 W/m2
22:50 5.7 °C 5.1 °C 1021.0 hPa Calm     96% 0.2 mm 0 W/m2
22:55 5.7 °C 5.1 °C 1020.7 hPa Calm   1.6 km/h 96% 0.2 mm 0 W/m2
23:00 5.7 °C 5.1 °C 1020.7 hPa SE 1.4 km/h 3.2 km/h 96% 0.2 mm 0 W/m2
23:05 5.7 °C 5.1 °C 1020.7 hPa SSW 1.4 km/h 1.6 km/h 96% 0.2 mm 0 W/m2
23:10 5.6 °C 5 °C 1021.0 hPa Calm   1.6 km/h 96% 0.2 mm 0 W/m2
23:15 5.5 °C 4.9 °C 1020.7 hPa Calm   3.2 km/h 96% 0.2 mm 0 W/m2
23:20 5.4 °C 4.8 °C 1020.7 hPa Calm   1.6 km/h 96% 0.2 mm 0 W/m2
23:25 5.4 °C 4.8 °C 1020.7 hPa SSW 1.4 km/h 1.6 km/h 96% 0.2 mm 0 W/m2
23:30 5.5 °C 4.9 °C 1020.7 hPa Calm   3.2 km/h 96% 0.2 mm 0 W/m2
23:35 5.6 °C 5 °C 1020.7 hPa Calm     96% 0.2 mm 0 W/m2
23:40 5.6 °C 5 °C 1021.0 hPa Calm   1.6 km/h 96% 0.2 mm 0 W/m2
23:45 5.7 °C 5.1 °C 1021.0 hPa Calm   1.6 km/h 96% 0.2 mm 0 W/m2
23:50 5.8 °C 5.4 °C 1020.7 hPa SE 3.2 km/h 4.8 km/h 97% 0.0 mm 0 W/m2
23:55 6.1 °C 5.7 °C 1020.7 hPa Calm   3.2 km/h 97% 0.0 mm 0 W/m2
Juneau County Weather
Compliments of Weather Underground - 4 mb